Time;durP1;ratioP1;P1;durP2;ratioP2;P2;SDS_P1;SDS_P2;PMS_P1;PMS_P2;Temp;Humidity;BMP_temperature;BMP_pressure;BME280_temperature;BME280_humidity;BME280_pressure;Samples;Min_cycle;Max_cycle;Signal;HPM_P1;HPM_P2
2021/06/03 00:01:58;;;;;;;1.67;1.10;;;25.50;55.50;;;;;;1811769;79;21159;-59
2021/06/03 00:04:27;;;;;;;2.65;1.10;;;25.50;55.40;;;;;;1811970;79;21096;-59
2021/06/03 00:06:57;;;;;;;2.58;1.02;;;25.50;55.40;;;;;;1811797;79;21170;-59
2021/06/03 00:09:27;;;;;;;1.82;1.10;;;25.50;55.50;;;;;;1811790;79;21043;-59
2021/06/03 00:11:57;;;;;;;2.90;1.52;;;25.40;55.50;;;;;;1811841;79;21067;-59
2021/06/03 00:14:26;;;;;;;2.70;1.20;;;25.40;55.50;;;;;;1811886;79;21112;-59
2021/06/03 00:16:56;;;;;;;2.72;1.20;;;25.40;55.50;;;;;;1811816;79;21154;-59
2021/06/03 00:19:26;;;;;;;1.35;1.20;;;25.40;55.50;;;;;;1811979;79;21036;-59
2021/06/03 00:21:55;;;;;;;2.27;1.30;;;25.40;55.60;;;;;;1811791;79;21089;-58
2021/06/03 00:24:25;;;;;;;2.35;1.27;;;25.40;55.50;;;;;;1811864;79;21067;-58
2021/06/03 00:26:55;;;;;;;1.70;1.00;;;25.40;55.60;;;;;;1811915;79;21100;-58
2021/06/03 00:29:24;;;;;;;2.42;1.22;;;25.40;55.60;;;;;;1812055;79;21091;-58
2021/06/03 00:31:54;;;;;;;1.80;1.22;;;25.40;55.70;;;;;;1811893;79;21110;-58
2021/06/03 00:34:23;;;;;;;2.20;1.40;;;25.30;56.20;;;;;;1811729;79;21108;-58
2021/06/03 00:36:53;;;;;;;2.15;1.42;;;25.30;55.60;;;;;;1811795;79;21159;-58
2021/06/03 00:39:23;;;;;;;1.65;1.17;;;25.40;55.70;;;;;;1782398;79;21111;-58
2021/06/03 00:41:52;;;;;;;1.52;1.12;;;25.40;55.60;;;;;;1811762;79;21368;-58
2021/06/03 00:44:22;;;;;;;2.27;1.15;;;25.40;55.50;;;;;;1811890;79;21089;-58
2021/06/03 00:46:52;;;;;;;1.57;1.10;;;25.30;55.60;;;;;;1811878;79;21064;-58
2021/06/03 00:49:21;;;;;;;2.25;1.00;;;25.30;55.60;;;;;;1811808;79;21173;-58
2021/06/03 00:51:50;;;;;;;1.98;1.00;;;25.30;55.50;;;;;;1811782;79;21109;-58
2021/06/03 00:54:20;;;;;;;1.35;0.80;;;25.30;55.50;;;;;;1811938;79;21159;-58
2021/06/03 00:56:51;;;;;;;1.00;0.88;;;25.30;55.60;;;;;;1811003;79;21200;-58
2021/06/03 00:59:21;;;;;;;2.80;1.17;;;25.30;55.60;;;;;;1811710;79;21094;-58
2021/06/03 01:01:51;;;;;;;1.80;1.07;;;25.30;55.60;;;;;;1811767;79;21198;-58
2021/06/03 01:04:21;;;;;;;1.77;1.02;;;25.30;55.60;;;;;;1811974;79;21044;-58
2021/06/03 01:06:51;;;;;;;1.82;1.25;;;25.30;55.70;;;;;;1811723;79;21104;-58
2021/06/03 01:09:32;;;;;;;2.10;1.20;;;25.30;55.70;;;;;;1811862;79;21036;-58
2021/06/03 01:12:10;;;;;;;2.75;0.90;;;25.30;55.70;;;;;;1811522;79;21102;-58
2021/06/03 01:14:44;;;;;;;2.62;1.10;;;25.20;55.60;;;;;;1811895;79;21629;-58
2021/06/03 01:17:14;;;;;;;1.20;0.98;;;25.30;55.60;;;;;;1811871;79;21162;-58
2021/06/03 01:19:44;;;;;;;3.02;1.15;;;25.30;55.60;;;;;;1811721;79;21145;-58
2021/06/03 01:22:26;;;;;;;4.08;1.20;;;25.20;55.60;;;;;;1811948;79;21044;-58
2021/06/03 01:24:59;;;;;;;2.25;0.90;;;25.20;55.60;;;;;;1811825;79;21127;-57
2021/06/03 01:27:32;;;;;;;2.47;1.20;;;25.20;55.70;;;;;;1811549;79;21118;-58
2021/06/03 01:30:14;;;;;;;1.80;1.10;;;25.20;55.60;;;;;;1811872;79;21091;-58
2021/06/03 01:32:52;;;;;;;2.98;1.05;;;25.20;55.70;;;;;;1810484;79;21182;-58
2021/06/03 01:35:24;;;;;;;1.87;1.00;;;25.20;55.60;;;;;;1811842;79;21147;-58
2021/06/03 01:37:53;;;;;;;1.42;1.05;;;25.20;55.60;;;;;;1811825;79;21179;-58
2021/06/03 01:40:25;;;;;;;1.20;0.98;;;25.20;55.70;;;;;;1811762;79;21155;-58
2021/06/03 01:42:54;;;;;;;2.10;1.20;;;25.20;55.70;;;;;;1811715;79;21100;-58
2021/06/03 01:45:25;;;;;;;1.30;0.80;;;25.20;55.70;;;;;;1811892;79;21091;-58
2021/06/03 01:47:56;;;;;;;2.50;1.20;;;25.20;55.70;;;;;;1811702;79;21126;-57
2021/06/03 01:50:26;;;;;;;1.47;1.10;;;25.20;55.70;;;;;;1811821;78;21173;-58
2021/06/03 01:52:57;;;;;;;2.45;1.17;;;25.20;55.70;;;;;;1811609;79;21076;-58
2021/06/03 01:55:28;;;;;;;2.77;1.20;;;25.20;55.80;;;;;;1811726;79;21096;-58
2021/06/03 01:58:00;;;;;;;1.57;0.98;;;25.20;55.70;;;;;;1811803;79;21116;-58
2021/06/03 02:00:31;;;;;;;2.22;0.90;;;25.20;56.30;;;;;;1811090;79;21118;-58
2021/06/03 02:03:01;;;;;;;2.12;1.02;;;25.20;55.70;;;;;;1811732;79;21084;-58
2021/06/03 02:05:33;;;;;;;1.15;1.00;;;25.20;55.70;;;;;;1811706;78;21040;-58
2021/06/03 02:08:02;;;;;;;2.58;1.00;;;25.10;55.60;;;;;;1811685;79;21194;-58
2021/06/03 02:10:33;;;;;;;2.65;0.90;;;25.20;55.60;;;;;;1810450;79;21146;-58
2021/06/03 02:13:11;;;;;;;1.62;1.07;;;25.10;55.60;;;;;;1782022;79;21079;-58
2021/06/03 02:15:47;;;;;;;3.52;1.00;;;25.10;55.70;;;;;;1811773;79;21545;-58
2021/06/03 02:18:19;;;;;;;1.07;0.90;;;25.10;55.70;;;;;;1811616;79;21622;-58
2021/06/03 02:20:50;;;;;;;0.80;0.80;;;25.10;55.70;;;;;;1811943;79;21099;-58
2021/06/03 02:23:22;;;;;;;2.70;0.90;;;25.10;55.70;;;;;;1811727;79;21664;-58
2021/06/03 02:25:53;;;;;;;1.70;0.90;;;25.10;55.80;;;;;;1811893;79;21122;-58
2021/06/03 02:28:23;;;;;;;2.15;1.02;;;25.10;55.70;;;;;;1811968;79;21551;-58
2021/06/03 02:30:54;;;;;;;2.80;1.12;;;25.10;55.70;;;;;;1811691;79;21174;-58
2021/06/03 02:33:25;;;;;;;1.70;1.00;;;25.10;55.70;;;;;;1811746;78;21036;-58
2021/06/03 02:35:55;;;;;;;1.57;1.07;;;25.10;55.80;;;;;;1814082;79;21107;-58
2021/06/03 02:38:30;;;;;;;2.47;1.00;;;25.10;55.80;;;;;;1821025;79;21055;-58
2021/06/03 02:41:03;;;;;;;2.85;0.88;;;25.10;55.70;;;;;;1820787;79;21114;-58
2021/06/03 02:43:33;;;;;;;1.45;1.10;;;25.10;55.70;;;;;;1820886;79;21039;-58
2021/06/03 02:46:03;;;;;;;1.57;0.90;;;25.10;55.80;;;;;;1820996;79;21051;-58
2021/06/03 02:48:32;;;;;;;2.52;1.35;;;25.10;55.80;;;;;;1821017;79;21055;-58
2021/06/03 02:51:02;;;;;;;1.62;0.90;;;25.00;55.60;;;;;;1820973;79;21165;-58
2021/06/03 02:53:32;;;;;;;1.30;0.80;;;25.10;55.80;;;;;;1821146;79;21064;-58
2021/06/03 02:56:02;;;;;;;0.95;0.70;;;25.10;55.80;;;;;;1821045;79;21212;-58
2021/06/03 02:58:33;;;;;;;1.47;1.07;;;25.10;55.80;;;;;;1820792;79;21496;-58
2021/06/03 03:01:04;;;;;;;2.60;1.17;;;25.00;56.30;;;;;;1820955;79;21122;-57
2021/06/03 03:03:34;;;;;;;2.33;1.05;;;25.00;55.60;;;;;;1821131;79;21217;-58
2021/06/03 03:06:04;;;;;;;1.45;0.78;;;25.00;55.60;;;;;;1820856;79;21102;-58
2021/06/03 03:08:34;;;;;;;1.87;1.10;;;25.00;55.70;;;;;;1820896;79;21133;-58
2021/06/03 03:11:05;;;;;;;1.10;0.90;;;25.00;55.70;;;;;;1820875;79;21138;-58
2021/06/03 03:13:36;;;;;;;1.65;0.88;;;25.00;55.80;;;;;;1820006;79;21062;-58
2021/06/03 03:16:05;;;;;;;1.82;0.98;;;25.00;55.80;;;;;;1820937;79;21039;-58
2021/06/03 03:18:36;;;;;;;3.27;1.00;;;25.00;55.80;;;;;;1820776;79;21059;-58
2021/06/03 03:21:07;;;;;;;2.20;0.90;;;25.00;55.70;;;;;;1820890;79;21181;-58
2021/06/03 03:23:36;;;;;;;1.82;1.07;;;25.00;55.80;;;;;;1820825;79;21563;-58
2021/06/03 03:26:06;;;;;;;1.52;1.00;;;25.00;55.80;;;;;;1820782;79;21090;-58
2021/06/03 03:28:36;;;;;;;1.67;0.90;;;25.00;55.80;;;;;;1820697;79;21493;-58
2021/06/03 03:31:05;;;;;;;1.37;1.00;;;25.00;55.80;;;;;;1821011;79;21059;-57
2021/06/03 03:33:35;;;;;;;2.35;0.90;;;25.00;55.80;;;;;;1820760;79;21087;-58
2021/06/03 03:36:06;;;;;;;2.37;0.90;;;25.00;55.80;;;;;;1820228;79;21051;-58
2021/06/03 03:38:37;;;;;;;1.80;0.90;;;25.00;55.90;;;;;;1810634;79;21102;-58
2021/06/03 03:41:07;;;;;;;1.40;0.85;;;25.00;55.90;;;;;;1811701;79;21120;-58
2021/06/03 03:43:36;;;;;;;2.42;1.12;;;25.00;55.90;;;;;;1811634;79;21115;-58
2021/06/03 03:46:06;;;;;;;0.90;0.70;;;25.00;55.90;;;;;;1811666;79;21085;-58
2021/06/03 03:48:36;;;;;;;2.20;1.10;;;25.00;55.90;;;;;;1811747;79;21080;-58
2021/06/03 03:51:06;;;;;;;1.98;0.93;;;25.00;55.90;;;;;;1811830;79;21211;-58
2021/06/03 03:53:37;;;;;;;1.55;0.95;;;25.00;55.90;;;;;;1810941;79;21145;-58
2021/06/03 03:56:07;;;;;;;1.50;1.05;;;25.00;55.90;;;;;;1811720;79;21096;-57
2021/06/03 03:58:40;;;;;;;1.45;0.98;;;25.00;55.90;;;;;;1811812;79;21092;-58
2021/06/03 04:01:10;;;;;;;1.77;1.00;;;25.00;55.90;;;;;;1811675;79;21103;-58
2021/06/03 04:03:40;;;;;;;1.50;1.20;;;25.00;56.00;;;;;;1811771;79;21036;-58
2021/06/03 04:06:11;;;;;;;2.00;1.10;;;24.90;55.80;;;;;;1812024;79;21532;-58
2021/06/03 04:08:41;;;;;;;0.80;0.70;;;24.90;55.90;;;;;;1811578;79;21052;-58
2021/06/03 04:11:11;;;;;;;3.08;1.20;;;24.90;55.90;;;;;;1811713;79;21168;-58
2021/06/03 04:13:42;;;;;;;1.65;1.02;;;24.90;55.80;;;;;;1811195;79;21128;-58
2021/06/03 04:16:11;;;;;;;1.70;0.90;;;24.90;55.80;;;;;;1811606;79;21093;-58
2021/06/03 04:18:41;;;;;;;1.95;0.90;;;24.90;55.80;;;;;;1811792;79;21166;-58
2021/06/03 04:21:11;;;;;;;1.50;1.07;;;24.90;55.90;;;;;;1811590;79;21063;-58
2021/06/03 04:23:42;;;;;;;3.17;1.55;;;24.90;55.90;;;;;;1811636;79;21067;-58
2021/06/03 04:26:11;;;;;;;1.67;1.10;;;24.90;55.90;;;;;;1811797;79;21146;-58
2021/06/03 04:28:41;;;;;;;1.10;1.00;;;24.90;55.90;;;;;;1811473;79;21671;-58
2021/06/03 04:31:10;;;;;;;1.60;0.80;;;24.90;55.90;;;;;;1811783;79;21114;-58
2021/06/03 04:33:40;;;;;;;1.70;0.80;;;24.90;56.00;;;;;;1811717;79;21124;-57
2021/06/03 04:36:09;;;;;;;1.47;1.10;;;24.90;55.90;;;;;;1811713;79;21116;-58
2021/06/03 04:38:39;;;;;;;1.15;0.80;;;24.90;55.90;;;;;;1811852;79;21191;-58
2021/06/03 04:41:09;;;;;;;1.80;1.22;;;24.90;56.00;;;;;;1811861;79;21115;-58
2021/06/03 04:43:38;;;;;;;2.45;1.00;;;24.90;56.00;;;;;;1811665;79;21067;-57
2021/06/03 04:46:08;;;;;;;2.10;0.82;;;24.90;56.10;;;;;;1811772;79;21132;-58
2021/06/03 04:48:37;;;;;;;1.47;1.00;;;24.90;56.10;;;;;;1811835;79;21035;-58
2021/06/03 04:51:07;;;;;;;1.02;0.90;;;24.90;56.10;;;;;;1811653;79;21092;-57
2021/06/03 04:53:37;;;;;;;1.10;0.82;;;24.90;56.10;;;;;;1811839;79;21122;-58
2021/06/03 04:56:07;;;;;;;1.22;0.85;;;24.90;56.00;;;;;;1811769;79;21182;-58
2021/06/03 04:58:36;;;;;;;1.60;1.00;;;24.90;56.00;;;;;;1811784;79;21142;-58
2021/06/03 05:01:06;;;;;;;1.75;1.10;;;24.90;56.10;;;;;;1811783;79;21131;-57
2021/06/03 05:03:36;;;;;;;1.10;0.90;;;24.90;56.10;;;;;;1811782;79;21068;-58
2021/06/03 05:06:06;;;;;;;3.10;1.27;;;24.90;56.10;;;;;;1811772;79;21228;-58
2021/06/03 05:08:36;;;;;;;2.05;1.10;;;24.90;56.10;;;;;;1811868;79;21071;-58
2021/06/03 05:11:05;;;;;;;4.12;1.40;;;24.90;56.00;;;;;;1811697;79;21136;-58
2021/06/03 05:13:35;;;;;;;5.80;1.42;;;24.90;55.70;;;;;;1826259;77;21219;-60
2021/06/03 05:16:05;;;;;;;2.47;1.30;;;24.90;55.10;;;;;;1835081;78;21095;-56
2021/06/03 05:18:34;;;;;;;5.90;1.37;;;24.80;54.60;;;;;;1835326;78;21058;-58
2021/06/03 05:21:11;;;;;;;2.80;1.40;;;24.70;54.70;;;;;;1835296;78;21087;-57
2021/06/03 05:23:40;;;;;;;4.28;1.10;;;24.70;53.70;;;;;;1834997;78;21499;-60
2021/06/03 05:26:10;;;;;;;6.20;1.55;;;24.60;53.30;;;;;;1835198;78;21043;-58
2021/06/03 05:28:39;;;;;;;2.10;1.32;;;24.60;53.00;;;;;;1835334;78;21123;-57
2021/06/03 05:31:09;;;;;;;4.87;1.95;;;24.50;52.80;;;;;;1835292;78;21087;-59
2021/06/03 05:33:38;;;;;;;3.33;1.40;;;24.40;52.60;;;;;;1835271;78;21082;-58
2021/06/03 05:36:08;;;;;;;4.78;1.55;;;24.40;52.50;;;;;;1834683;78;21258;-58
2021/06/03 05:38:38;;;;;;;4.10;1.20;;;24.30;52.40;;;;;;1837142;77;21086;-58
2021/06/03 05:41:07;;;;;;;3.05;1.40;;;24.30;52.50;;;;;;1838741;77;21098;-57
2021/06/03 05:43:37;;;;;;;2.10;1.37;;;24.30;52.50;;;;;;1838740;78;21203;-58
2021/06/03 05:46:06;;;;;;;2.60;1.52;;;24.20;52.30;;;;;;1838742;78;21039;-58
2021/06/03 05:48:36;;;;;;;3.92;1.57;;;24.20;52.50;;;;;;1838833;78;21055;-57
2021/06/03 05:51:05;;;;;;;5.20;1.62;;;24.20;52.50;;;;;;1838775;78;21090;-57
2021/06/03 05:53:35;;;;;;;5.90;3.08;;;24.20;52.60;;;;;;1838764;77;21110;-55
2021/06/03 05:56:04;;;;;;;2.83;1.67;;;24.10;52.80;;;;;;1838780;78;21070;-57
2021/06/03 05:58:34;;;;;;;4.87;1.40;;;24.10;53.00;;;;;;1838738;78;21062;-59
2021/06/03 06:01:04;;;;;;;2.72;1.30;;;24.10;52.80;;;;;;1838674;78;21079;-60
2021/06/03 06:03:41;;;;;;;6.08;1.52;;;24.10;52.70;;;;;;1838957;77;21053;-57
2021/06/03 06:08:47;;;;;;;2.70;1.32;;;24.00;52.60;;;;;;1839065;77;21136;-58
2021/06/03 06:11:17;;;;;;;5.70;1.37;;;24.00;52.50;;;;;;1838747;77;21153;-59
2021/06/03 06:13:47;;;;;;;2.92;1.40;;;24.00;52.50;;;;;;1838606;78;21172;-58
2021/06/03 06:16:17;;;;;;;5.17;1.25;;;23.90;52.50;;;;;;1838702;77;21063;-59
2021/06/03 06:18:46;;;;;;;4.80;1.55;;;23.90;52.60;;;;;;1838929;78;21063;-60
2021/06/03 06:21:20;;;;;;;2.08;1.20;;;23.90;52.70;;;;;;1838538;77;21099;-58
2021/06/03 06:23:50;;;;;;;4.12;1.07;;;23.90;52.60;;;;;;1838961;77;21090;-59
2021/06/03 06:26:20;;;;;;;3.87;1.20;;;23.80;52.50;;;;;;1838858;78;21142;-63
2021/06/03 06:28:50;;;;;;;2.45;1.22;;;23.90;52.60;;;;;;1838694;78;21055;-57
2021/06/03 06:31:20;;;;;;;3.33;1.27;;;23.90;52.90;;;;;;1838800;77;21161;-58
2021/06/03 06:33:50;;;;;;;3.47;1.72;;;23.80;52.90;;;;;;1838428;78;21136;-59
2021/06/03 06:36:19;;;;;;;4.55;1.62;;;23.90;53.00;;;;;;1838673;77;21059;-58
2021/06/03 06:38:49;;;;;;;1.77;1.20;;;23.90;52.90;;;;;;1838817;77;21208;-60
2021/06/03 06:41:18;;;;;;;5.03;1.65;;;23.90;53.00;;;;;;1838779;78;21141;-60
2021/06/03 06:43:48;;;;;;;4.12;1.65;;;23.90;53.00;;;;;;1838725;78;21110;-57
2021/06/03 06:46:18;;;;;;;2.47;1.22;;;23.90;52.90;;;;;;1838924;77;21039;-57
2021/06/03 06:48:47;;;;;;;4.00;1.70;;;23.90;52.90;;;;;;1838736;77;21059;-58
2021/06/03 06:51:17;;;;;;;5.40;1.47;;;23.90;53.00;;;;;;1838785;77;21067;-58
2021/06/03 06:53:47;;;;;;;4.10;1.47;;;23.90;53.10;;;;;;1838763;78;21145;-58
2021/06/03 06:56:16;;;;;;;2.55;1.30;;;23.90;53.10;;;;;;1838756;78;21058;-57
2021/06/03 06:58:46;;;;;;;3.08;1.60;;;23.90;53.10;;;;;;1838669;78;21078;-57
2021/06/03 07:01:16;;;;;;;2.75;1.30;;;23.90;53.10;;;;;;1838723;77;21141;-55
2021/06/03 07:03:46;;;;;;;2.42;1.10;;;24.00;53.20;;;;;;1838861;77;21116;-55
2021/06/03 07:06:16;;;;;;;3.98;1.60;;;23.90;53.10;;;;;;1838810;77;21534;-58
2021/06/03 07:08:47;;;;;;;2.92;1.50;;;24.00;53.20;;;;;;1838814;78;21110;-57
2021/06/03 07:11:17;;;;;;;3.87;1.40;;;24.00;53.20;;;;;;1838417;77;21091;-57
2021/06/03 07:13:46;;;;;;;3.65;1.15;;;24.00;53.10;;;;;;1838904;77;21059;-57
2021/06/03 07:16:17;;;;;;;1.65;1.20;;;24.00;53.10;;;;;;1838526;78;21074;-58
2021/06/03 07:18:46;;;;;;;2.98;1.67;;;24.00;53.00;;;;;;1838704;78;21124;-57
2021/06/03 07:21:16;;;;;;;7.00;1.72;;;24.00;53.10;;;;;;1838827;78;21102;-58
2021/06/03 07:23:46;;;;;;;3.20;1.15;;;24.00;52.90;;;;;;1838768;77;21110;-57
2021/06/03 07:26:16;;;;;;;5.30;1.27;;;24.00;52.80;;;;;;1838684;78;21094;-58
2021/06/03 07:28:47;;;;;;;5.28;1.70;;;24.10;52.90;;;;;;1838637;78;21188;-58
2021/06/03 07:31:16;;;;;;;3.80;1.47;;;24.10;52.80;;;;;;1838601;78;21247;-60
2021/06/03 07:33:45;;;;;;;2.70;1.62;;;24.10;52.90;;;;;;1838967;77;21180;-59
2021/06/03 07:36:15;;;;;;;3.40;1.60;;;24.10;52.80;;;;;;1838833;78;21098;-59
2021/06/03 07:38:44;;;;;;;3.22;1.22;;;24.10;52.70;;;;;;1838592;77;21087;-58
2021/06/03 07:41:14;;;;;;;2.02;1.40;;;24.10;52.50;;;;;;1838709;77;21551;-57
2021/06/03 07:43:44;;;;;;;4.75;1.40;;;24.10;52.50;;;;;;1838523;77;21094;-57
2021/06/03 07:46:15;;;;;;;3.27;1.45;;;24.10;52.50;;;;;;1838629;78;21059;-57
2021/06/03 07:48:44;;;;;;;2.33;1.32;;;24.10;52.60;;;;;;1838629;78;21569;-58
2021/06/03 07:51:14;;;;;;;5.00;1.77;;;24.10;52.50;;;;;;1838780;77;21130;-58
2021/06/03 07:53:44;;;;;;;3.12;1.80;;;24.10;52.50;;;;;;1838464;78;21058;-59
2021/06/03 07:56:13;;;;;;;3.02;1.25;;;24.10;52.30;;;;;;1838707;77;21058;-58
2021/06/03 07:58:43;;;;;;;3.05;1.32;;;24.20;52.30;;;;;;1838805;78;21031;-60
2021/06/03 08:01:12;;;;;;;2.50;1.40;;;24.20;52.30;;;;;;1838579;77;21099;-58
2021/06/03 08:03:42;;;;;;;2.52;1.10;;;24.20;52.30;;;;;;1838614;78;21039;-56
2021/06/03 08:06:11;;;;;;;5.10;1.42;;;24.20;52.20;;;;;;1838630;78;21096;-56
2021/06/03 08:08:41;;;;;;;3.52;1.20;;;24.20;52.20;;;;;;1838731;78;21148;-56
2021/06/03 08:11:11;;;;;;;3.33;1.20;;;24.10;52.10;;;;;;1838594;78;21083;-59
2021/06/03 08:13:40;;;;;;;2.55;1.32;;;24.20;52.20;;;;;;1838691;77;21231;-57
2021/06/03 08:16:10;;;;;;;2.72;1.30;;;24.20;52.20;;;;;;1838706;78;21070;-59
2021/06/03 08:18:40;;;;;;;3.92;1.47;;;24.20;52.10;;;;;;1838729;78;21063;-60
2021/06/03 08:21:09;;;;;;;2.62;1.30;;;24.20;52.10;;;;;;1838372;77;21199;-59
2021/06/03 08:23:38;;;;;;;5.65;1.32;;;24.10;52.00;;;;;;1838712;77;21090;-59
2021/06/03 08:26:08;;;;;;;2.70;1.40;;;24.10;52.00;;;;;;1838709;78;21083;-58
2021/06/03 08:28:38;;;;;;;3.83;1.72;;;24.20;52.10;;;;;;1838665;78;21183;-59
2021/06/03 08:31:07;;;;;;;3.92;1.62;;;24.20;52.20;;;;;;1838728;77;21160;-56
2021/06/03 08:33:36;;;;;;;2.72;1.77;;;24.20;52.20;;;;;;1838682;78;21110;-59
2021/06/03 08:36:06;;;;;;;4.90;1.77;;;24.20;52.20;;;;;;1838458;78;21113;-59
2021/06/03 08:38:36;;;;;;;3.62;1.30;;;24.20;52.20;;;;;;1838775;78;21184;-58
2021/06/03 08:41:05;;;;;;;4.22;1.30;;;24.20;52.20;;;;;;1838689;77;21102;-58
2021/06/03 08:43:34;;;;;;;1.65;1.10;;;24.20;52.20;;;;;;1838820;77;21051;-58
2021/06/03 08:46:05;;;;;;;3.00;1.50;;;24.20;52.20;;;;;;1838754;78;21078;-52
2021/06/03 08:48:34;;;;;;;4.42;1.40;;;24.20;52.10;;;;;;1838725;78;21035;-57
2021/06/03 08:51:05;;;;;;;7.97;1.65;;;24.20;52.00;;;;;;1838918;78;21098;-57
2021/06/03 08:53:35;;;;;;;2.72;1.22;;;24.20;52.00;;;;;;1838678;78;21132;-59
2021/06/03 08:56:14;;;;;;;2.30;1.40;;;24.20;51.90;;;;;;1838670;78;21129;-60
2021/06/03 08:58:46;;;;;;;3.40;1.52;;;24.20;52.00;;;;;;1838973;78;21075;-60
2021/06/03 09:01:18;;;;;;;2.65;1.27;;;24.20;52.00;;;;;;1838758;77;21142;-60
2021/06/03 09:03:47;;;;;;;3.05;1.40;;;24.20;51.90;;;;;;1838713;78;21132;-60
2021/06/03 09:06:18;;;;;;;3.75;1.45;;;24.20;51.80;;;;;;1838771;78;21063;-60
2021/06/03 09:09:00;;;;;;;4.45;1.32;;;24.10;51.70;;;;;;1838829;77;21067;-60
2021/06/03 09:11:28;;;;;;;3.87;1.35;;;24.20;51.70;;;;;;1838028;77;21149;-60
2021/06/03 09:14:03;;;;;;;2.83;1.37;;;24.20;51.70;;;;;;1838868;78;21512;-60
2021/06/03 09:16:33;;;;;;;3.08;1.40;;;24.10;51.60;;;;;;1838503;77;21133;-60
2021/06/03 09:19:14;;;;;;;6.53;1.75;;;24.10;51.70;;;;;;1838772;77;21105;-60
2021/06/03 09:21:50;;;;;;;3.70;1.47;;;24.10;51.60;;;;;;1840274;77;21113;-60
2021/06/03 09:24:22;;;;;;;3.15;1.30;;;24.20;52.00;;;;;;1849279;77;21121;-55
2021/06/03 09:26:53;;;;;;;3.77;1.82;;;24.10;51.90;;;;;;1818209;77;21201;-60
2021/06/03 09:29:25;;;;;;;3.85;1.42;;;24.10;52.10;;;;;;1817478;79;21027;-53
2021/06/03 09:31:59;;;;;;;4.05;2.02;;;24.20;52.60;;;;;;1817609;79;21133;-51
2021/06/03 09:34:29;;;;;;;4.90;1.50;;;24.20;52.80;;;;;;1807392;79;21645;-54
2021/06/03 09:37:01;;;;;;;4.97;1.57;;;24.20;52.70;;;;;;1817421;79;21129;-56
2021/06/03 09:39:33;;;;;;;4.03;1.50;;;24.20;52.80;;;;;;1838082;77;21027;-53
2021/06/03 09:42:06;;;;;;;1.42;1.15;;;24.20;53.00;;;;;;1838720;78;21078;-52
2021/06/03 09:44:42;;;;;;;3.77;1.62;;;24.30;53.10;;;;;;1838571;77;21235;-51
2021/06/03 09:47:17;;;;;;;1.70;1.17;;;24.30;53.00;;;;;;1851660;77;21124;-45
2021/06/03 09:49:58;;;;;;;3.08;1.50;;;24.30;52.90;;;;;;1870118;77;21061;-51
2021/06/03 09:52:30;;;;;;;4.92;2.20;;;24.30;52.80;;;;;;1870260;77;21114;-59
2021/06/03 09:55:01;;;;;;;6.12;1.57;;;24.30;52.80;;;;;;1869413;77;21009;-56
2021/06/03 09:57:36;;;;;;;1.95;1.42;;;24.40;53.00;;;;;;1865522;77;21041;-60
2021/06/03 10:00:13;;;;;;;8.35;1.65;;;24.40;52.90;;;;;;1861029;77;21119;-61
2021/06/03 10:02:45;;;;;;;4.03;1.52;;;24.40;53.60;;;;;;1860397;77;21210;-60
2021/06/03 10:05:16;;;;;;;4.80;1.50;;;24.40;52.80;;;;;;1861235;77;21021;-59
2021/06/03 10:07:57;;;;;;;3.22;1.55;;;24.40;53.40;;;;;;1861464;77;21210;-61
2021/06/03 10:10:28;;;;;;;3.30;1.30;;;24.50;53.20;;;;;;1861329;77;21120;-60
2021/06/03 10:12:58;;;;;;;4.25;1.60;;;24.50;53.40;;;;;;1861017;77;21131;-60
2021/06/03 10:15:30;;;;;;;2.85;1.52;;;24.50;53.30;;;;;;1861072;77;21131;-56
2021/06/03 10:18:02;;;;;;;5.22;1.90;;;24.50;52.90;;;;;;1861415;77;21746;-53
2021/06/03 10:20:57;;;;;;;2.37;1.50;;;24.60;52.70;;;;;;1860323;77;21120;-60
2021/06/03 10:23:30;;;;;;;5.45;1.55;;;24.60;52.60;;;;;;1860386;77;21013;-57
2021/06/03 10:26:05;;;;;;;2.70;1.55;;;24.60;52.60;;;;;;1861169;77;21048;-59
2021/06/03 10:28:35;;;;;;;3.45;2.55;;;24.60;52.80;;;;;;1861354;77;21060;-64
2021/06/03 10:31:12;;;;;;;3.17;1.50;;;24.60;52.90;;;;;;1851191;77;21173;-61
2021/06/03 10:33:44;;;;;;;2.55;1.40;;;24.60;53.20;;;;;;1845673;77;21101;-62
2021/06/03 10:36:13;;;;;;;3.02;1.50;;;24.60;53.20;;;;;;1865890;77;21082;-58
2021/06/03 10:38:45;;;;;;;2.62;1.30;;;24.70;53.50;;;;;;1866315;77;21055;-62
2021/06/03 10:41:17;;;;;;;6.67;1.72;;;24.70;53.00;;;;;;1859018;77;21091;-63
2021/06/03 10:43:46;;;;;;;3.40;1.50;;;24.70;53.10;;;;;;1852863;77;21425;-61
2021/06/03 10:46:15;;;;;;;3.15;1.20;;;24.80;53.60;;;;;;1852922;77;21438;-58
2021/06/03 10:48:45;;;;;;;4.92;2.25;;;24.80;52.80;;;;;;1852728;77;21124;-59
2021/06/03 10:51:16;;;;;;;4.45;1.77;;;24.80;52.80;;;;;;1853007;77;21051;-58
2021/06/03 10:53:48;;;;;;;3.47;1.87;;;24.80;52.10;;;;;;1853055;77;21027;-61
2021/06/03 10:56:22;;;;;;;3.72;1.90;;;24.70;51.70;;;;;;1828999;77;21536;-59
2021/06/03 10:58:58;;;;;;;2.17;1.45;;;24.70;51.60;;;;;;1822040;79;21142;-63
2021/06/03 11:01:36;;;;;;;2.87;1.45;;;24.70;51.40;;;;;;1821383;79;21537;-63
2021/06/03 11:04:16;;;;;;;4.83;1.47;;;24.70;51.40;;;;;;1821097;78;21579;-62
2021/06/03 11:06:48;;;;;;;2.25;1.50;;;24.70;51.30;;;;;;1819358;79;21057;-60
2021/06/03 11:09:20;;;;;;;3.77;1.42;;;24.70;51.30;;;;;;1821754;79;21057;-59
2021/06/03 11:11:51;;;;;;;2.62;1.45;;;24.80;51.30;;;;;;1821445;79;21049;-59
2021/06/03 11:14:22;;;;;;;2.33;1.30;;;24.80;51.20;;;;;;1819213;79;21809;-61
2021/06/03 11:16:55;;;;;;;3.55;1.62;;;24.80;51.10;;;;;;1821631;79;21144;-60
2021/06/03 11:19:30;;;;;;;6.53;1.40;;;24.80;51.10;;;;;;1821981;78;21435;-61
2021/06/03 11:22:04;;;;;;;3.10;1.05;;;24.80;51.00;;;;;;1821919;79;21073;-60
2021/06/03 11:24:39;;;;;;;3.33;1.40;;;24.80;51.00;;;;;;1823730;77;21126;-62
2021/06/03 11:27:11;;;;;;;1.35;1.20;;;24.80;51.60;;;;;;1830428;78;21117;-60
2021/06/03 11:29:52;;;;;;;5.85;1.25;;;24.80;51.30;;;;;;1840549;77;21115;-59
2021/06/03 11:32:24;;;;;;;3.02;1.45;;;24.80;51.10;;;;;;1852496;77;21578;-60
2021/06/03 11:34:56;;;;;;;4.28;1.20;;;24.90;51.10;;;;;;1852378;77;21586;-61
2021/06/03 11:37:31;;;;;;;7.15;1.57;;;24.90;50.90;;;;;;1852643;77;21055;-69
2021/06/03 11:40:19;;;;;;;2.37;1.50;;;25.00;50.70;;;;;;1845198;77;21203;-59
2021/06/03 11:42:52;;;;;;;3.92;1.22;;;25.00;51.30;;;;;;1859748;77;21155;-58
2021/06/03 11:45:43;;;;;;;3.35;1.30;;;25.00;50.70;;;;;;1835536;77;21491;-56
2021/06/03 11:48:21;;;;;;;9.53;3.83;;;25.00;50.60;;;;;;1834784;77;21037;-58
2021/06/03 11:50:54;;;;;;;4.47;3.08;;;25.00;50.60;;;;;;1835290;78;21148;-60
2021/06/03 11:53:26;;;;;;;6.53;2.45;;;25.10;50.90;;;;;;1834840;77;21136;-58
2021/06/03 11:56:19;;;;;;;4.50;1.98;;;25.10;50.80;;;;;;1833297;77;21122;-56
2021/06/03 11:58:51;;;;;;;4.67;2.15;;;25.10;51.00;;;;;;1832625;78;21190;-54
2021/06/03 12:01:26;;;;;;;5.10;1.75;;;25.10;50.90;;;;;;1834532;78;21146;-57
2021/06/03 12:04:20;;;;;;;5.03;1.72;;;25.10;50.90;;;;;;1842038;77;21572;-56
2021/06/03 12:06:51;;;;;;;1.85;1.62;;;25.10;50.90;;;;;;1805159;79;21075;-61
2021/06/03 12:09:31;;;;;;;4.20;1.72;;;25.10;50.90;;;;;;1807492;77;21069;-61
2021/06/03 12:12:03;;;;;;;4.62;1.98;;;25.10;51.20;;;;;;1835246;77;21442;-58
2021/06/03 12:14:35;;;;;;;3.30;1.62;;;25.10;51.00;;;;;;1835105;77;21127;-62
2021/06/03 12:17:06;;;;;;;2.00;1.40;;;25.20;50.90;;;;;;1835241;77;21089;-63
2021/06/03 12:19:39;;;;;;;4.53;1.55;;;25.10;51.10;;;;;;1841247;77;21096;-62
2021/06/03 12:22:11;;;;;;;2.02;1.42;;;25.20;51.60;;;;;;1835331;78;21494;-58
2021/06/03 12:24:51;;;;;;;3.25;1.50;;;25.20;51.50;;;;;;1835554;77;21136;-60
2021/06/03 12:27:38;;;;;;;2.37;1.60;;;25.20;50.80;;;;;;1815286;77;21095;-62
2021/06/03 12:30:24;;;;;;;2.95;1.25;;;25.20;50.70;;;;;;1838439;77;21094;-59
2021/06/03 12:33:14;;;;;;;2.80;1.57;;;25.20;50.70;;;;;;1835472;77;21113;-60
2021/06/03 12:36:02;;;;;;;7.70;1.50;;;25.20;50.80;;;;;;1835357;78;21042;-61
2021/06/03 12:38:43;;;;;;;2.85;2.42;;;25.20;50.70;;;;;;1835192;78;21466;-62
2021/06/03 12:41:35;;;;;;;4.10;1.80;;;25.20;50.60;;;;;;1836058;77;21164;-62
2021/06/03 12:44:13;;;;;;;4.08;1.80;;;25.20;50.60;;;;;;1849767;77;21026;-64
2021/06/03 12:46:49;;;;;;;3.22;1.80;;;25.20;50.70;;;;;;1849778;77;21475;-59
2021/06/03 12:49:21;;;;;;;3.67;1.70;;;25.20;50.50;;;;;;1849577;77;21252;-59
2021/06/03 12:52:06;;;;;;;4.10;1.65;;;25.20;50.50;;;;;;1839381;77;21167;-55
2021/06/03 12:54:44;;;;;;;4.75;2.10;;;25.30;50.60;;;;;;1845985;77;21067;-59
2021/06/03 12:57:17;;;;;;;3.67;2.02;;;25.30;50.50;;;;;;1838794;77;21063;-62
2021/06/03 12:59:53;;;;;;;5.95;2.27;;;25.30;50.40;;;;;;1838949;78;21154;-61
2021/06/03 13:02:24;;;;;;;4.03;2.47;;;25.30;50.40;;;;;;1838659;78;21634;-61
2021/06/03 13:04:54;;;;;;;6.85;2.40;;;25.30;50.30;;;;;;1838799;77;21595;-59
2021/06/03 13:07:31;;;;;;;6.28;2.20;;;25.30;50.40;;;;;;1838646;78;21126;-64
2021/06/03 13:10:09;;;;;;;3.45;2.05;;;25.30;50.50;;;;;;1838967;77;21083;-66
2021/06/03 13:12:47;;;;;;;1.95;1.50;;;25.30;50.40;;;;;;1837790;77;21703;-64
2021/06/03 13:15:17;;;;;;;4.37;1.62;;;25.30;50.40;;;;;;1838755;78;21368;-61